sensor_id;sensor_type;location;lat;lon;timestamp;temperature;humidity
9925;DHT22;5001;51.674;7.868;2023-04-16T00:02:02;8.90;1.00
9925;DHT22;5001;51.674;7.868;2023-04-16T00:04:29;8.90;1.00
9925;DHT22;5001;51.674;7.868;2023-04-16T00:06:56;8.90;1.00
9925;DHT22;5001;51.674;7.868;2023-04-16T00:09:23;8.80;1.00
9925;DHT22;5001;51.674;7.868;2023-04-16T00:11:51;8.90;1.00
9925;DHT22;5001;51.674;7.868;2023-04-16T00:14:17;8.80;1.00
9925;DHT22;5001;51.674;7.868;2023-04-16T00:16:44;8.90;1.00
9925;DHT22;5001;51.674;7.868;2023-04-16T00:19:12;8.90;1.00
9925;DHT22;5001;51.674;7.868;2023-04-16T00:21:39;8.90;1.00
9925;DHT22;5001;51.674;7.868;2023-04-16T00:24:06;8.80;1.00
9925;DHT22;5001;51.674;7.868;2023-04-16T00:26:36;8.90;1.00
9925;DHT22;5001;51.674;7.868;2023-04-16T00:29:03;8.80;1.00
9925;DHT22;5001;51.674;7.868;2023-04-16T00:31:32;8.80;1.00
9925;DHT22;5001;51.674;7.868;2023-04-16T00:33:59;8.80;1.00
9925;DHT22;5001;51.674;7.868;2023-04-16T00:36:26;8.80;1.00
9925;DHT22;5001;51.674;7.868;2023-04-16T00:38:54;8.80;1.00
9925;DHT22;5001;51.674;7.868;2023-04-16T00:41:22;8.80;1.00
9925;DHT22;5001;51.674;7.868;2023-04-16T00:43:49;8.80;1.00
9925;DHT22;5001;51.674;7.868;2023-04-16T00:46:18;8.80;1.00
9925;DHT22;5001;51.674;7.868;2023-04-16T00:48:45;8.90;1.00
9925;DHT22;5001;51.674;7.868;2023-04-16T00:51:13;8.80;1.00
9925;DHT22;5001;51.674;7.868;2023-04-16T00:53:40;8.80;1.00
9925;DHT22;5001;51.674;7.868;2023-04-16T00:56:08;8.80;1.00
9925;DHT22;5001;51.674;7.868;2023-04-16T00:58:37;8.90;1.00
9925;DHT22;5001;51.674;7.868;2023-04-16T01:01:04;8.90;1.00
9925;DHT22;5001;51.674;7.868;2023-04-16T01:03:42;8.80;1.00
9925;DHT22;5001;51.674;7.868;2023-04-16T01:06:10;8.80;1.00
9925;DHT22;5001;51.674;7.868;2023-04-16T01:08:38;8.80;1.00
9925;DHT22;5001;51.674;7.868;2023-04-16T01:11:05;8.80;1.00
9925;DHT22;5001;51.674;7.868;2023-04-16T01:13:33;8.80;1.00
9925;DHT22;5001;51.674;7.868;2023-04-16T01:16:06;8.80;1.00
9925;DHT22;5001;51.674;7.868;2023-04-16T01:18:34;8.80;1.00
9925;DHT22;5001;51.674;7.868;2023-04-16T01:21:02;8.80;1.00
9925;DHT22;5001;51.674;7.868;2023-04-16T01:23:30;8.80;1.00
9925;DHT22;5001;51.674;7.868;2023-04-16T01:25:57;8.80;1.00
9925;DHT22;5001;51.674;7.868;2023-04-16T01:28:24;8.80;1.00
9925;DHT22;5001;51.674;7.868;2023-04-16T01:30:51;8.80;1.00
9925;DHT22;5001;51.674;7.868;2023-04-16T01:33:36;8.80;1.00
9925;DHT22;5001;51.674;7.868;2023-04-16T01:36:05;8.70;1.00
9925;DHT22;5001;51.674;7.868;2023-04-16T01:38:32;8.80;1.00
9925;DHT22;5001;51.674;7.868;2023-04-16T01:41:00;8.80;1.00
9925;DHT22;5001;51.674;7.868;2023-04-16T01:43:27;8.80;1.00
9925;DHT22;5001;51.674;7.868;2023-04-16T01:46:13;8.80;1.00
9925;DHT22;5001;51.674;7.868;2023-04-16T01:48:41;8.80;1.00
9925;DHT22;5001;51.674;7.868;2023-04-16T01:51:08;8.80;1.00
9925;DHT22;5001;51.674;7.868;2023-04-16T01:53:36;8.80;1.00
9925;DHT22;5001;51.674;7.868;2023-04-16T01:56:03;8.70;1.00
9925;DHT22;5001;51.674;7.868;2023-04-16T01:58:31;8.70;1.00
9925;DHT22;5001;51.674;7.868;2023-04-16T02:00:59;8.80;1.00
9925;DHT22;5001;51.674;7.868;2023-04-16T02:03:26;8.80;1.00
9925;DHT22;5001;51.674;7.868;2023-04-16T02:05:54;8.80;1.00
9925;DHT22;5001;51.674;7.868;2023-04-16T02:08:21;8.80;1.00
9925;DHT22;5001;51.674;7.868;2023-04-16T02:10:49;8.80;1.00
9925;DHT22;5001;51.674;7.868;2023-04-16T02:13:16;8.80;1.00
9925;DHT22;5001;51.674;7.868;2023-04-16T02:15:47;8.80;1.00
9925;DHT22;5001;51.674;7.868;2023-04-16T02:18:17;8.80;1.00
9925;DHT22;5001;51.674;7.868;2023-04-16T02:20:46;8.80;1.00
9925;DHT22;5001;51.674;7.868;2023-04-16T02:23:16;8.90;1.00
9925;DHT22;5001;51.674;7.868;2023-04-16T02:25:45;8.80;1.00
9925;DHT22;5001;51.674;7.868;2023-04-16T02:28:15;8.80;1.00
9925;DHT22;5001;51.674;7.868;2023-04-16T02:30:44;8.80;1.00
9925;DHT22;5001;51.674;7.868;2023-04-16T02:33:13;8.80;1.00
9925;DHT22;5001;51.674;7.868;2023-04-16T02:35:50;8.80;1.00
9925;DHT22;5001;51.674;7.868;2023-04-16T02:38:17;8.80;1.00
9925;DHT22;5001;51.674;7.868;2023-04-16T02:40:45;8.80;1.00
9925;DHT22;5001;51.674;7.868;2023-04-16T02:43:12;8.80;1.00
9925;DHT22;5001;51.674;7.868;2023-04-16T02:45:39;8.80;1.00
9925;DHT22;5001;51.674;7.868;2023-04-16T02:48:06;8.80;1.00
9925;DHT22;5001;51.674;7.868;2023-04-16T02:50:34;8.80;1.00
9925;DHT22;5001;51.674;7.868;2023-04-16T02:53:01;8.80;1.00
9925;DHT22;5001;51.674;7.868;2023-04-16T02:55:29;8.80;1.00
9925;DHT22;5001;51.674;7.868;2023-04-16T02:57:56;8.80;1.00
9925;DHT22;5001;51.674;7.868;2023-04-16T03:00:23;8.80;1.00
9925;DHT22;5001;51.674;7.868;2023-04-16T03:02:50;8.90;1.00
9925;DHT22;5001;51.674;7.868;2023-04-16T03:05:17;8.80;1.00
9925;DHT22;5001;51.674;7.868;2023-04-16T03:07:45;8.80;1.00
9925;DHT22;5001;51.674;7.868;2023-04-16T03:10:13;8.90;1.00
9925;DHT22;5001;51.674;7.868;2023-04-16T03:12:44;8.90;1.00
9925;DHT22;5001;51.674;7.868;2023-04-16T03:15:11;8.90;1.00
9925;DHT22;5001;51.674;7.868;2023-04-16T03:17:38;8.90;1.00
9925;DHT22;5001;51.674;7.868;2023-04-16T03:20:05;8.90;1.00
9925;DHT22;5001;51.674;7.868;2023-04-16T03:22:33;8.90;1.00
9925;DHT22;5001;51.674;7.868;2023-04-16T03:24:59;8.90;1.00
9925;DHT22;5001;51.674;7.868;2023-04-16T03:27:26;8.90;1.00
9925;DHT22;5001;51.674;7.868;2023-04-16T03:29:54;8.90;1.00
9925;DHT22;5001;51.674;7.868;2023-04-16T03:32:21;8.90;1.00
9925;DHT22;5001;51.674;7.868;2023-04-16T03:34:48;8.90;1.00
9925;DHT22;5001;51.674;7.868;2023-04-16T03:37:15;9.00;1.00
9925;DHT22;5001;51.674;7.868;2023-04-16T03:39:42;8.90;1.00
9925;DHT22;5001;51.674;7.868;2023-04-16T03:42:10;8.90;1.00
9925;DHT22;5001;51.674;7.868;2023-04-16T03:44:37;8.90;1.00
9925;DHT22;5001;51.674;7.868;2023-04-16T03:47:04;8.90;1.00
9925;DHT22;5001;51.674;7.868;2023-04-16T03:49:31;8.90;1.00
9925;DHT22;5001;51.674;7.868;2023-04-16T03:51:58;8.90;1.00
9925;DHT22;5001;51.674;7.868;2023-04-16T03:54:25;9.00;1.00
9925;DHT22;5001;51.674;7.868;2023-04-16T03:57:04;8.90;1.00
9925;DHT22;5001;51.674;7.868;2023-04-16T03:59:32;8.90;99.90
9925;DHT22;5001;51.674;7.868;2023-04-16T04:01:59;9.00;99.90
9925;DHT22;5001;51.674;7.868;2023-04-16T04:04:26;9.00;99.90
9925;DHT22;5001;51.674;7.868;2023-04-16T04:06:53;9.00;99.90
9925;DHT22;5001;51.674;7.868;2023-04-16T04:09:21;9.00;99.90
9925;DHT22;5001;51.674;7.868;2023-04-16T04:11:49;9.00;99.90
9925;DHT22;5001;51.674;7.868;2023-04-16T04:14:16;9.00;99.90
9925;DHT22;5001;51.674;7.868;2023-04-16T04:16:43;9.00;99.90
9925;DHT22;5001;51.674;7.868;2023-04-16T04:19:10;9.00;99.90
9925;DHT22;5001;51.674;7.868;2023-04-16T04:21:37;9.00;99.90
9925;DHT22;5001;51.674;7.868;2023-04-16T04:24:04;9.00;99.90
9925;DHT22;5001;51.674;7.868;2023-04-16T04:26:32;8.90;99.90
9925;DHT22;5001;51.674;7.868;2023-04-16T04:28:59;8.90;99.90
9925;DHT22;5001;51.674;7.868;2023-04-16T04:31:26;9.00;99.90
9925;DHT22;5001;51.674;7.868;2023-04-16T04:33:54;9.00;99.90
9925;DHT22;5001;51.674;7.868;2023-04-16T04:36:22;9.00;99.90
9925;DHT22;5001;51.674;7.868;2023-04-16T04:38:49;9.00;99.90
9925;DHT22;5001;51.674;7.868;2023-04-16T04:41:16;9.10;99.90
9925;DHT22;5001;51.674;7.868;2023-04-16T04:43:43;9.10;99.90
9925;DHT22;5001;51.674;7.868;2023-04-16T04:46:10;9.00;99.90
9925;DHT22;5001;51.674;7.868;2023-04-16T04:48:39;9.00;99.90
9925;DHT22;5001;51.674;7.868;2023-04-16T04:51:06;9.00;99.90
9925;DHT22;5001;51.674;7.868;2023-04-16T04:53:33;9.00;99.90
9925;DHT22;5001;51.674;7.868;2023-04-16T04:56:00;9.00;99.90
9925;DHT22;5001;51.674;7.868;2023-04-16T04:58:38;9.00;99.90
9925;DHT22;5001;51.674;7.868;2023-04-16T05:01:05;9.00;99.90
9925;DHT22;5001;51.674;7.868;2023-04-16T05:03:32;9.00;99.90
9925;DHT22;5001;51.674;7.868;2023-04-16T05:06:00;9.00;99.90
9925;DHT22;5001;51.674;7.868;2023-04-16T05:08:27;9.00;99.90
9925;DHT22;5001;51.674;7.868;2023-04-16T05:10:56;9.00;99.90
9925;DHT22;5001;51.674;7.868;2023-04-16T05:13:23;9.00;99.90
9925;DHT22;5001;51.674;7.868;2023-04-16T05:15:50;9.10;99.90
9925;DHT22;5001;51.674;7.868;2023-04-16T05:18:17;9.10;99.90
9925;DHT22;5001;51.674;7.868;2023-04-16T05:20:44;9.10;93.00
9925;DHT22;5001;51.674;7.868;2023-04-16T05:23:11;9.10;66.00
9925;DHT22;5001;51.674;7.868;2023-04-16T05:25:38;9.10;71.30
9925;DHT22;5001;51.674;7.868;2023-04-16T05:28:05;9.10;20.70
9925;DHT22;5001;51.674;7.868;2023-04-16T05:30:32;9.20;22.50
9925;DHT22;5001;51.674;7.868;2023-04-16T05:32:59;9.20;5.80
9925;DHT22;5001;51.674;7.868;2023-04-16T05:35:26;9.30;1.70
9925;DHT22;5001;51.674;7.868;2023-04-16T05:37:53;9.20;1.00
9925;DHT22;5001;51.674;7.868;2023-04-16T05:40:20;9.10;1.00
9925;DHT22;5001;51.674;7.868;2023-04-16T05:42:47;9.10;1.00
9925;DHT22;5001;51.674;7.868;2023-04-16T05:45:15;9.10;1.00
9925;DHT22;5001;51.674;7.868;2023-04-16T05:47:42;9.10;1.00
9925;DHT22;5001;51.674;7.868;2023-04-16T05:50:09;9.10;1.00
9925;DHT22;5001;51.674;7.868;2023-04-16T05:52:36;9.20;1.00
9925;DHT22;5001;51.674;7.868;2023-04-16T05:55:04;9.20;1.00
9925;DHT22;5001;51.674;7.868;2023-04-16T05:57:32;9.20;1.00
9925;DHT22;5001;51.674;7.868;2023-04-16T05:59:59;9.20;1.00
9925;DHT22;5001;51.674;7.868;2023-04-16T06:02:26;9.20;1.00
9925;DHT22;5001;51.674;7.868;2023-04-16T06:04:53;9.20;1.00
9925;DHT22;5001;51.674;7.868;2023-04-16T06:07:20;9.20;1.00
9925;DHT22;5001;51.674;7.868;2023-04-16T06:09:47;9.20;1.00
9925;DHT22;5001;51.674;7.868;2023-04-16T06:12:14;9.20;1.00
9925;DHT22;5001;51.674;7.868;2023-04-16T06:14:41;9.30;1.00
9925;DHT22;5001;51.674;7.868;2023-04-16T06:17:08;9.40;1.00
9925;DHT22;5001;51.674;7.868;2023-04-16T06:19:35;9.30;1.00
9925;DHT22;5001;51.674;7.868;2023-04-16T06:22:02;9.30;1.00
9925;DHT22;5001;51.674;7.868;2023-04-16T06:24:30;9.40;1.00
9925;DHT22;5001;51.674;7.868;2023-04-16T06:26:57;9.30;1.00
9925;DHT22;5001;51.674;7.868;2023-04-16T06:29:24;9.40;1.00
9925;DHT22;5001;51.674;7.868;2023-04-16T06:32:07;9.40;1.00
9925;DHT22;5001;51.674;7.868;2023-04-16T06:34:33;9.40;1.00
9925;DHT22;5001;51.674;7.868;2023-04-16T06:37:01;9.30;1.00
9925;DHT22;5001;51.674;7.868;2023-04-16T06:39:27;9.30;1.00
9925;DHT22;5001;51.674;7.868;2023-04-16T06:41:55;9.20;1.00
9925;DHT22;5001;51.674;7.868;2023-04-16T06:44:22;9.10;1.00
9925;DHT22;5001;51.674;7.868;2023-04-16T06:46:49;9.20;1.00
9925;DHT22;5001;51.674;7.868;2023-04-16T06:49:16;9.20;1.00
9925;DHT22;5001;51.674;7.868;2023-04-16T06:51:43;9.20;1.00
9925;DHT22;5001;51.674;7.868;2023-04-16T06:54:11;9.40;1.00
9925;DHT22;5001;51.674;7.868;2023-04-16T06:56:37;9.30;1.00
9925;DHT22;5001;51.674;7.868;2023-04-16T06:59:05;9.40;1.00
9925;DHT22;5001;51.674;7.868;2023-04-16T07:01:32;9.50;1.00
9925;DHT22;5001;51.674;7.868;2023-04-16T07:04:00;9.50;1.00
9925;DHT22;5001;51.674;7.868;2023-04-16T07:06:27;9.50;1.00
9925;DHT22;5001;51.674;7.868;2023-04-16T07:08:54;9.50;1.00
9925;DHT22;5001;51.674;7.868;2023-04-16T07:11:21;9.40;1.00
9925;DHT22;5001;51.674;7.868;2023-04-16T07:13:48;9.50;1.00
9925;DHT22;5001;51.674;7.868;2023-04-16T07:16:17;9.50;1.00
9925;DHT22;5001;51.674;7.868;2023-04-16T07:18:44;9.50;1.00
9925;DHT22;5001;51.674;7.868;2023-04-16T07:21:11;9.50;1.00
9925;DHT22;5001;51.674;7.868;2023-04-16T07:23:38;9.50;1.00
9925;DHT22;5001;51.674;7.868;2023-04-16T07:26:05;9.60;1.00
9925;DHT22;5001;51.674;7.868;2023-04-16T07:28:32;9.60;1.00
9925;DHT22;5001;51.674;7.868;2023-04-16T07:30:59;9.60;1.00
9925;DHT22;5001;51.674;7.868;2023-04-16T07:33:26;9.70;1.00
9925;DHT22;5001;51.674;7.868;2023-04-16T07:35:53;9.70;1.00
9925;DHT22;5001;51.674;7.868;2023-04-16T07:38:20;9.80;1.00
9925;DHT22;5001;51.674;7.868;2023-04-16T07:40:47;9.90;1.00
9925;DHT22;5001;51.674;7.868;2023-04-16T07:43:14;9.90;1.00
9925;DHT22;5001;51.674;7.868;2023-04-16T07:45:42;10.00;1.00
9925;DHT22;5001;51.674;7.868;2023-04-16T07:48:09;10.10;1.00
9925;DHT22;5001;51.674;7.868;2023-04-16T07:50:36;10.00;1.00
9925;DHT22;5001;51.674;7.868;2023-04-16T07:53:03;10.00;1.00
9925;DHT22;5001;51.674;7.868;2023-04-16T07:55:31;10.00;1.00
9925;DHT22;5001;51.674;7.868;2023-04-16T07:57:58;10.10;1.00
9925;DHT22;5001;51.674;7.868;2023-04-16T08:00:25;10.10;1.00
9925;DHT22;5001;51.674;7.868;2023-04-16T08:02:52;10.00;1.00
9925;DHT22;5001;51.674;7.868;2023-04-16T08:05:19;10.00;1.00
9925;DHT22;5001;51.674;7.868;2023-04-16T08:07:46;10.00;1.00
9925;DHT22;5001;51.674;7.868;2023-04-16T08:10:13;10.10;1.00
9925;DHT22;5001;51.674;7.868;2023-04-16T08:12:40;10.10;1.00
9925;DHT22;5001;51.674;7.868;2023-04-16T08:15:08;10.10;1.00
9925;DHT22;5001;51.674;7.868;2023-04-16T08:17:34;10.20;1.00
9925;DHT22;5001;51.674;7.868;2023-04-16T08:20:04;10.30;1.00
9925;DHT22;5001;51.674;7.868;2023-04-16T08:22:32;10.50;1.00
9925;DHT22;5001;51.674;7.868;2023-04-16T08:24:59;10.40;1.00
9925;DHT22;5001;51.674;7.868;2023-04-16T08:27:26;10.60;1.00
9925;DHT22;5001;51.674;7.868;2023-04-16T08:29:53;10.50;1.00
9925;DHT22;5001;51.674;7.868;2023-04-16T08:32:20;10.80;1.00
9925;DHT22;5001;51.674;7.868;2023-04-16T08:34:47;11.00;1.00
9925;DHT22;5001;51.674;7.868;2023-04-16T08:37:14;10.90;1.00
9925;DHT22;5001;51.674;7.868;2023-04-16T08:39:41;11.30;1.00
9925;DHT22;5001;51.674;7.868;2023-04-16T08:42:16;11.40;1.00
9925;DHT22;5001;51.674;7.868;2023-04-16T08:44:47;11.80;1.00
9925;DHT22;5001;51.674;7.868;2023-04-16T08:47:15;11.90;1.00
9925;DHT22;5001;51.674;7.868;2023-04-16T08:49:43;12.10;1.00
9925;DHT22;5001;51.674;7.868;2023-04-16T08:52:17;12.00;1.00
9925;DHT22;5001;51.674;7.868;2023-04-16T08:55:02;12.20;1.00
9925;DHT22;5001;51.674;7.868;2023-04-16T08:57:38;12.40;1.00
9925;DHT22;5001;51.674;7.868;2023-04-16T09:00:07;12.60;1.00
9925;DHT22;5001;51.674;7.868;2023-04-16T09:02:35;12.50;1.00
9925;DHT22;5001;51.674;7.868;2023-04-16T09:05:04;12.50;1.00
9925;DHT22;5001;51.674;7.868;2023-04-16T09:07:33;12.50;1.00
9925;DHT22;5001;51.674;7.868;2023-04-16T09:10:00;12.40;1.00
9925;DHT22;5001;51.674;7.868;2023-04-16T09:12:29;12.40;1.00
9925;DHT22;5001;51.674;7.868;2023-04-16T09:14:56;12.50;1.00
9925;DHT22;5001;51.674;7.868;2023-04-16T09:17:27;12.50;1.00
9925;DHT22;5001;51.674;7.868;2023-04-16T09:19:54;12.40;1.00
9925;DHT22;5001;51.674;7.868;2023-04-16T09:22:21;12.50;1.00
9925;DHT22;5001;51.674;7.868;2023-04-16T09:24:48;12.40;1.00
9925;DHT22;5001;51.674;7.868;2023-04-16T09:27:16;12.50;1.00
9925;DHT22;5001;51.674;7.868;2023-04-16T09:29:43;12.50;1.00
9925;DHT22;5001;51.674;7.868;2023-04-16T09:32:10;12.30;1.00
9925;DHT22;5001;51.674;7.868;2023-04-16T09:35:07;12.40;1.00
9925;DHT22;5001;51.674;7.868;2023-04-16T09:37:34;12.60;1.00
9925;DHT22;5001;51.674;7.868;2023-04-16T09:40:02;12.70;1.00
9925;DHT22;5001;51.674;7.868;2023-04-16T09:42:36;12.90;1.00
9925;DHT22;5001;51.674;7.868;2023-04-16T09:45:04;13.40;1.00
9925;DHT22;5001;51.674;7.868;2023-04-16T09:47:39;13.80;1.00
9925;DHT22;5001;51.674;7.868;2023-04-16T09:50:08;13.90;1.00
9925;DHT22;5001;51.674;7.868;2023-04-16T09:52:38;13.80;1.00
9925;DHT22;5001;51.674;7.868;2023-04-16T09:55:05;13.60;1.00
9925;DHT22;5001;51.674;7.868;2023-04-16T09:57:36;13.70;1.00
9925;DHT22;5001;51.674;7.868;2023-04-16T10:00:08;13.60;1.00
9925;DHT22;5001;51.674;7.868;2023-04-16T10:02:39;13.50;1.00
9925;DHT22;5001;51.674;7.868;2023-04-16T10:05:08;13.50;1.00
9925;DHT22;5001;51.674;7.868;2023-04-16T10:07:36;13.60;1.00
9925;DHT22;5001;51.674;7.868;2023-04-16T10:10:03;13.50;1.00
9925;DHT22;5001;51.674;7.868;2023-04-16T10:12:31;13.50;1.00
9925;DHT22;5001;51.674;7.868;2023-04-16T10:15:01;13.50;1.00
9925;DHT22;5001;51.674;7.868;2023-04-16T10:17:29;13.60;1.00
9925;DHT22;5001;51.674;7.868;2023-04-16T10:19:57;13.60;1.00
9925;DHT22;5001;51.674;7.868;2023-04-16T10:22:25;13.70;1.00
9925;DHT22;5001;51.674;7.868;2023-04-16T10:24:53;13.80;1.00
9925;DHT22;5001;51.674;7.868;2023-04-16T10:27:21;13.90;1.00
9925;DHT22;5001;51.674;7.868;2023-04-16T10:29:49;14.10;1.00
9925;DHT22;5001;51.674;7.868;2023-04-16T10:32:16;14.50;1.00
9925;DHT22;5001;51.674;7.868;2023-04-16T10:34:44;14.60;1.00
9925;DHT22;5001;51.674;7.868;2023-04-16T10:37:11;14.60;1.00
9925;DHT22;5001;51.674;7.868;2023-04-16T10:39:38;14.30;1.00
9925;DHT22;5001;51.674;7.868;2023-04-16T10:42:10;14.10;1.00
9925;DHT22;5001;51.674;7.868;2023-04-16T10:44:38;14.00;1.00
9925;DHT22;5001;51.674;7.868;2023-04-16T10:47:11;13.80;1.00
9925;DHT22;5001;51.674;7.868;2023-04-16T10:49:39;13.80;1.00
9925;DHT22;5001;51.674;7.868;2023-04-16T10:52:11;13.70;1.00
9925;DHT22;5001;51.674;7.868;2023-04-16T10:54:38;13.70;1.00
9925;DHT22;5001;51.674;7.868;2023-04-16T10:57:08;13.50;1.00
9925;DHT22;5001;51.674;7.868;2023-04-16T10:59:37;13.50;1.00
9925;DHT22;5001;51.674;7.868;2023-04-16T11:02:15;13.70;1.00
9925;DHT22;5001;51.674;7.868;2023-04-16T11:04:47;13.60;1.00
9925;DHT22;5001;51.674;7.868;2023-04-16T11:07:20;13.80;1.00
9925;DHT22;5001;51.674;7.868;2023-04-16T11:12:22;14.20;1.00
9925;DHT22;5001;51.674;7.868;2023-04-16T11:14:51;14.20;1.00
9925;DHT22;5001;51.674;7.868;2023-04-16T11:17:20;14.20;1.00
9925;DHT22;5001;51.674;7.868;2023-04-16T11:19:48;14.10;1.00
9925;DHT22;5001;51.674;7.868;2023-04-16T11:22:20;14.00;1.00
9925;DHT22;5001;51.674;7.868;2023-04-16T11:24:53;13.60;1.00
9925;DHT22;5001;51.674;7.868;2023-04-16T11:27:24;13.50;1.00
9925;DHT22;5001;51.674;7.868;2023-04-16T11:29:59;13.70;1.00
9925;DHT22;5001;51.674;7.868;2023-04-16T11:32:29;14.00;1.00
9925;DHT22;5001;51.674;7.868;2023-04-16T11:34:56;13.80;1.00
9925;DHT22;5001;51.674;7.868;2023-04-16T11:37:33;13.70;1.00
9925;DHT22;5001;51.674;7.868;2023-04-16T11:40:01;13.60;1.00
9925;DHT22;5001;51.674;7.868;2023-04-16T11:42:30;13.80;1.00
9925;DHT22;5001;51.674;7.868;2023-04-16T11:44:58;14.00;1.00
9925;DHT22;5001;51.674;7.868;2023-04-16T11:47:31;14.40;1.00
9925;DHT22;5001;51.674;7.868;2023-04-16T11:50:21;14.50;1.00
9925;DHT22;5001;51.674;7.868;2023-04-16T11:52:51;14.30;1.00
9925;DHT22;5001;51.674;7.868;2023-04-16T11:55:19;14.00;1.00
9925;DHT22;5001;51.674;7.868;2023-04-16T11:57:47;14.30;1.00
9925;DHT22;5001;51.674;7.868;2023-04-16T12:00:15;14.50;1.00
9925;DHT22;5001;51.674;7.868;2023-04-16T12:02:49;14.30;1.00
9925;DHT22;5001;51.674;7.868;2023-04-16T12:05:32;13.80;1.00
9925;DHT22;5001;51.674;7.868;2023-04-16T12:08:02;13.90;1.00
9925;DHT22;5001;51.674;7.868;2023-04-16T12:10:31;14.10;1.00
9925;DHT22;5001;51.674;7.868;2023-04-16T12:13:14;13.90;1.00
9925;DHT22;5001;51.674;7.868;2023-04-16T12:15:49;13.80;1.00
9925;DHT22;5001;51.674;7.868;2023-04-16T12:18:17;14.10;1.00
9925;DHT22;5001;51.674;7.868;2023-04-16T12:20:46;14.50;1.00
9925;DHT22;5001;51.674;7.868;2023-04-16T12:25:50;14.90;1.00
9925;DHT22;5001;51.674;7.868;2023-04-16T12:28:27;14.90;1.00
9925;DHT22;5001;51.674;7.868;2023-04-16T12:30:55;15.00;1.00
9925;DHT22;5001;51.674;7.868;2023-04-16T12:33:22;15.10;1.00
9925;DHT22;5001;51.674;7.868;2023-04-16T12:35:49;14.90;1.00
9925;DHT22;5001;51.674;7.868;2023-04-16T12:38:17;14.50;1.00
9925;DHT22;5001;51.674;7.868;2023-04-16T12:40:44;14.30;1.00
9925;DHT22;5001;51.674;7.868;2023-04-16T12:43:11;13.90;1.00
9925;DHT22;5001;51.674;7.868;2023-04-16T12:45:39;13.60;1.00
9925;DHT22;5001;51.674;7.868;2023-04-16T12:48:06;13.60;1.00
9925;DHT22;5001;51.674;7.868;2023-04-16T12:50:33;13.70;1.00
9925;DHT22;5001;51.674;7.868;2023-04-16T12:53:00;13.60;1.00
9925;DHT22;5001;51.674;7.868;2023-04-16T12:55:27;13.70;1.00
9925;DHT22;5001;51.674;7.868;2023-04-16T12:57:54;13.70;1.00
9925;DHT22;5001;51.674;7.868;2023-04-16T13:00:21;13.60;1.00
9925;DHT22;5001;51.674;7.868;2023-04-16T13:02:48;13.60;1.00
9925;DHT22;5001;51.674;7.868;2023-04-16T13:05:16;13.60;1.00
9925;DHT22;5001;51.674;7.868;2023-04-16T13:07:45;13.40;1.00
9925;DHT22;5001;51.674;7.868;2023-04-16T13:10:12;13.50;1.00
9925;DHT22;5001;51.674;7.868;2023-04-16T13:12:39;13.60;1.00
9925;DHT22;5001;51.674;7.868;2023-04-16T13:15:07;13.70;1.00
9925;DHT22;5001;51.674;7.868;2023-04-16T13:17:34;13.80;1.00
9925;DHT22;5001;51.674;7.868;2023-04-16T13:20:01;13.70;1.00
9925;DHT22;5001;51.674;7.868;2023-04-16T13:22:28;13.80;1.00
9925;DHT22;5001;51.674;7.868;2023-04-16T13:24:56;14.10;1.00
9925;DHT22;5001;51.674;7.868;2023-04-16T13:27:23;14.10;1.00
9925;DHT22;5001;51.674;7.868;2023-04-16T13:29:50;14.20;1.00
9925;DHT22;5001;51.674;7.868;2023-04-16T13:32:16;14.40;1.00
9925;DHT22;5001;51.674;7.868;2023-04-16T13:34:44;14.30;1.00
9925;DHT22;5001;51.674;7.868;2023-04-16T13:37:12;14.60;1.00
9925;DHT22;5001;51.674;7.868;2023-04-16T13:39:38;15.00;1.00
9925;DHT22;5001;51.674;7.868;2023-04-16T13:42:05;15.10;1.00
9925;DHT22;5001;51.674;7.868;2023-04-16T13:44:32;14.90;1.00
9925;DHT22;5001;51.674;7.868;2023-04-16T13:46:59;14.90;1.00
9925;DHT22;5001;51.674;7.868;2023-04-16T13:49:26;15.00;1.00
9925;DHT22;5001;51.674;7.868;2023-04-16T13:51:53;15.10;1.00
9925;DHT22;5001;51.674;7.868;2023-04-16T13:54:20;15.20;1.00
9925;DHT22;5001;51.674;7.868;2023-04-16T13:56:49;14.90;1.00
9925;DHT22;5001;51.674;7.868;2023-04-16T13:59:17;14.90;1.00
9925;DHT22;5001;51.674;7.868;2023-04-16T14:01:44;15.20;1.00
9925;DHT22;5001;51.674;7.868;2023-04-16T14:04:11;15.60;1.00
9925;DHT22;5001;51.674;7.868;2023-04-16T14:06:38;15.40;1.00
9925;DHT22;5001;51.674;7.868;2023-04-16T14:09:05;15.10;1.00
9925;DHT22;5001;51.674;7.868;2023-04-16T14:11:32;15.20;1.00
9925;DHT22;5001;51.674;7.868;2023-04-16T14:13:59;14.90;1.00
9925;DHT22;5001;51.674;7.868;2023-04-16T14:16:26;15.00;1.00
9925;DHT22;5001;51.674;7.868;2023-04-16T14:18:53;14.90;1.00
9925;DHT22;5001;51.674;7.868;2023-04-16T14:21:20;14.90;1.00
9925;DHT22;5001;51.674;7.868;2023-04-16T14:23:47;14.60;1.00
9925;DHT22;5001;51.674;7.868;2023-04-16T14:26:15;14.70;1.00
9925;DHT22;5001;51.674;7.868;2023-04-16T14:28:42;14.90;1.00
9925;DHT22;5001;51.674;7.868;2023-04-16T14:31:09;15.00;1.00
9925;DHT22;5001;51.674;7.868;2023-04-16T14:33:36;15.00;1.00
9925;DHT22;5001;51.674;7.868;2023-04-16T14:36:03;14.80;1.00
9925;DHT22;5001;51.674;7.868;2023-04-16T14:38:31;14.30;1.00
9925;DHT22;5001;51.674;7.868;2023-04-16T14:40:58;14.20;1.00
9925;DHT22;5001;51.674;7.868;2023-04-16T14:43:26;14.20;1.00
9925;DHT22;5001;51.674;7.868;2023-04-16T14:45:53;14.00;1.00
9925;DHT22;5001;51.674;7.868;2023-04-16T14:48:20;13.80;1.00
9925;DHT22;5001;51.674;7.868;2023-04-16T14:50:47;13.80;1.00
9925;DHT22;5001;51.674;7.868;2023-04-16T14:53:14;13.80;1.00
9925;DHT22;5001;51.674;7.868;2023-04-16T14:55:41;13.90;1.00
9925;DHT22;5001;51.674;7.868;2023-04-16T14:58:08;14.00;1.00
9925;DHT22;5001;51.674;7.868;2023-04-16T15:00:36;14.10;1.00
9925;DHT22;5001;51.674;7.868;2023-04-16T15:03:04;13.70;1.00
9925;DHT22;5001;51.674;7.868;2023-04-16T15:05:31;13.70;1.00
9925;DHT22;5001;51.674;7.868;2023-04-16T15:07:58;13.60;1.00
9925;DHT22;5001;51.674;7.868;2023-04-16T15:10:26;13.30;1.00
9925;DHT22;5001;51.674;7.868;2023-04-16T15:12:53;13.30;1.00
9925;DHT22;5001;51.674;7.868;2023-04-16T15:15:20;13.40;1.00
9925;DHT22;5001;51.674;7.868;2023-04-16T15:17:47;13.50;1.00
9925;DHT22;5001;51.674;7.868;2023-04-16T15:20:17;13.60;1.00
9925;DHT22;5001;51.674;7.868;2023-04-16T15:22:44;13.60;1.00
9925;DHT22;5001;51.674;7.868;2023-04-16T15:25:11;13.70;1.00
9925;DHT22;5001;51.674;7.868;2023-04-16T15:27:38;13.60;1.00
9925;DHT22;5001;51.674;7.868;2023-04-16T15:30:05;13.60;1.00
9925;DHT22;5001;51.674;7.868;2023-04-16T15:32:33;13.60;1.00
9925;DHT22;5001;51.674;7.868;2023-04-16T15:35:01;13.60;1.00
9925;DHT22;5001;51.674;7.868;2023-04-16T15:37:28;13.60;1.00
9925;DHT22;5001;51.674;7.868;2023-04-16T15:39:55;13.60;1.00
9925;DHT22;5001;51.674;7.868;2023-04-16T15:42:23;13.50;1.00
9925;DHT22;5001;51.674;7.868;2023-04-16T15:44:50;13.50;1.00
9925;DHT22;5001;51.674;7.868;2023-04-16T15:47:17;13.60;1.00
9925;DHT22;5001;51.674;7.868;2023-04-16T15:49:44;13.50;1.00
9925;DHT22;5001;51.674;7.868;2023-04-16T15:52:11;13.60;1.00
9925;DHT22;5001;51.674;7.868;2023-04-16T15:54:38;13.60;1.00
9925;DHT22;5001;51.674;7.868;2023-04-16T15:57:05;13.60;1.00
9925;DHT22;5001;51.674;7.868;2023-04-16T15:59:32;13.70;1.00
9925;DHT22;5001;51.674;7.868;2023-04-16T16:01:59;13.90;1.00
9925;DHT22;5001;51.674;7.868;2023-04-16T16:04:27;14.10;1.00
9925;DHT22;5001;51.674;7.868;2023-04-16T16:06:54;14.30;1.00
9925;DHT22;5001;51.674;7.868;2023-04-16T16:09:21;14.20;1.00
9925;DHT22;5001;51.674;7.868;2023-04-16T16:11:53;14.30;1.00
9925;DHT22;5001;51.674;7.868;2023-04-16T16:14:20;14.40;1.00
9925;DHT22;5001;51.674;7.868;2023-04-16T16:16:48;14.50;1.00
9925;DHT22;5001;51.674;7.868;2023-04-16T16:19:15;14.50;1.00
9925;DHT22;5001;51.674;7.868;2023-04-16T16:21:42;14.40;1.00
9925;DHT22;5001;51.674;7.868;2023-04-16T16:24:09;14.20;1.00
9925;DHT22;5001;51.674;7.868;2023-04-16T16:26:36;14.10;1.00
9925;DHT22;5001;51.674;7.868;2023-04-16T16:29:04;14.20;1.00
9925;DHT22;5001;51.674;7.868;2023-04-16T16:31:31;14.20;1.00
9925;DHT22;5001;51.674;7.868;2023-04-16T16:33:58;14.00;1.00
9925;DHT22;5001;51.674;7.868;2023-04-16T16:36:25;14.00;1.00